createdAt,value
2022-11-05T00:02:45.562Z,11.30
2022-11-05T00:05:31.442Z,11.40
2022-11-05T00:08:19.051Z,11.40
2022-11-05T00:10:49.118Z,11.40
2022-11-05T00:13:35.234Z,11.30
2022-11-05T00:16:21.309Z,11.30
2022-11-05T00:19:06.772Z,11.20
2022-11-05T00:21:53.056Z,11.20
2022-11-05T00:24:39.138Z,11.10
2022-11-05T00:27:09.571Z,11.10
2022-11-05T00:29:38.603Z,11.10
2022-11-05T00:32:07.248Z,11.10
2022-11-05T00:34:35.697Z,11.00
2022-11-05T00:37:04.323Z,11.00
2022-11-05T00:39:32.807Z,11.00
2022-11-05T00:42:18.600Z,11.00
2022-11-05T00:45:08.121Z,11.00
2022-11-05T00:47:53.859Z,11.00
2022-11-05T00:50:23.167Z,11.00
2022-11-05T00:52:58.995Z,11.00
2022-11-05T00:55:29.539Z,11.00
2022-11-05T00:57:58.898Z,11.00
2022-11-05T01:00:29.792Z,11.10
2022-11-05T01:03:02.146Z,11.10
2022-11-05T01:05:31.605Z,11.10
2022-11-05T01:08:00.219Z,11.20
2022-11-05T01:10:48.142Z,11.20
2022-11-05T01:13:18.985Z,11.20
2022-11-05T01:15:51.094Z,11.20
2022-11-05T01:18:20.313Z,11.30
2022-11-05T01:20:49.286Z,11.30
2022-11-05T01:23:18.565Z,11.30
2022-11-05T01:25:47.398Z,11.30
2022-11-05T01:28:15.963Z,11.40
2022-11-05T01:30:44.702Z,11.20
2022-11-05T01:33:14.847Z,11.40
2022-11-05T01:35:43.637Z,11.40
2022-11-05T01:38:12.305Z,11.20
2022-11-05T01:40:44.198Z,11.40
2022-11-05T01:43:15.719Z,11.30
2022-11-05T01:45:44.629Z,11.30
2022-11-05T01:48:16.899Z,11.30
2022-11-05T01:50:48.595Z,11.30
2022-11-05T01:53:20.959Z,11.30
2022-11-05T01:55:51.536Z,11.40
2022-11-05T01:58:22.707Z,11.30
2022-11-05T02:00:51.258Z,11.20
2022-11-05T02:03:21.278Z,11.30
2022-11-05T02:05:50.720Z,11.30
2022-11-05T02:08:23.433Z,11.30
2022-11-05T02:10:52.140Z,11.30
2022-11-05T02:13:20.579Z,11.30
2022-11-05T02:15:53.695Z,11.30
2022-11-05T02:18:27.147Z,11.30
2022-11-05T02:21:04.092Z,11.30
2022-11-05T02:23:59.768Z,11.30
2022-11-05T02:26:45.893Z,11.30
2022-11-05T02:29:35.206Z,11.40
2022-11-05T02:32:06.850Z,11.40
2022-11-05T02:34:41.391Z,11.30
2022-11-05T02:37:13.988Z,11.30
2022-11-05T02:39:47.482Z,11.40
2022-11-05T02:42:20.903Z,11.40
2022-11-05T02:44:54.313Z,11.30
2022-11-05T02:47:28.345Z,11.30
2022-11-05T02:50:04.312Z,11.30
2022-11-05T02:52:37.624Z,11.20
2022-11-05T02:55:09.353Z,11.20
2022-11-05T02:57:38.447Z,11.20
2022-11-05T03:00:08.848Z,11.10
2022-11-05T03:02:39.018Z,10.90
2022-11-05T03:05:07.989Z,11.00
2022-11-05T03:07:41.547Z,10.90
2022-11-05T03:10:30.814Z,10.80
2022-11-05T03:13:05.366Z,10.80
2022-11-05T03:15:57.013Z,10.70
2022-11-05T03:18:32.195Z,10.60
2022-11-05T03:21:04.165Z,10.60
2022-11-05T03:23:37.227Z,10.50
2022-11-05T03:26:08.111Z,10.50
2022-11-05T03:28:38.067Z,10.50
2022-11-05T03:31:08.413Z,10.40
2022-11-05T03:33:39.356Z,10.50
2022-11-05T03:36:11.773Z,10.50
2022-11-05T03:38:43.159Z,10.50
2022-11-05T03:41:30.974Z,10.60
2022-11-05T03:44:02.778Z,10.50
2022-11-05T03:46:33.315Z,10.50
2022-11-05T03:49:04.381Z,10.50
2022-11-05T03:51:55.714Z,10.60
2022-11-05T03:54:24.270Z,10.50
2022-11-05T03:56:58.824Z,10.50
2022-11-05T03:59:27.715Z,10.50
2022-11-05T04:01:56.461Z,10.60
2022-11-05T04:04:26.701Z,10.60
2022-11-05T04:07:12.991Z,10.70
2022-11-05T04:09:59.050Z,10.70
2022-11-05T04:12:45.213Z,10.70
2022-11-05T04:15:13.689Z,10.80
2022-11-05T04:17:41.206Z,10.80
2022-11-05T04:20:28.852Z,10.80
2022-11-05T04:23:17.954Z,10.80
2022-11-05T04:25:46.619Z,10.80
2022-11-05T04:28:15.786Z,10.80
2022-11-05T04:30:44.431Z,10.80
2022-11-05T04:33:15.420Z,10.70
2022-11-05T04:35:46.678Z,10.80
2022-11-05T04:38:16.163Z,10.80
2022-11-05T04:40:44.620Z,10.70
2022-11-05T04:43:15.274Z,10.80
2022-11-05T04:46:02.642Z,10.80
2022-11-05T04:48:31.083Z,10.80
2022-11-05T04:51:19.461Z,10.80
2022-11-05T04:53:47.958Z,10.80
2022-11-05T04:56:19.616Z,10.90
2022-11-05T04:58:48.250Z,10.90
2022-11-05T05:01:17.716Z,11.00
2022-11-05T05:03:48.234Z,11.00
2022-11-05T05:06:17.039Z,11.00
2022-11-05T05:08:47.854Z,11.10
2022-11-05T05:11:34.870Z,11.20
2022-11-05T05:14:03.556Z,11.20
2022-11-05T05:16:32.142Z,11.30
2022-11-05T05:19:00.538Z,11.40
2022-11-05T05:21:39.895Z,11.40
2022-11-05T05:24:11.189Z,11.50
2022-11-05T05:26:40.498Z,11.60
2022-11-05T05:29:09.246Z,11.70
2022-11-05T05:31:37.717Z,11.80
2022-11-05T05:34:06.669Z,11.80
2022-11-05T05:36:35.170Z,11.90
2022-11-05T05:39:06.126Z,12.00
2022-11-05T05:41:36.075Z,12.20
2022-11-05T05:44:06.167Z,12.10
2022-11-05T05:46:35.513Z,12.20
2022-11-05T05:49:09.426Z,12.40
2022-11-05T05:51:44.083Z,12.40
2022-11-05T05:54:13.513Z,12.50
2022-11-05T05:56:44.203Z,12.60
2022-11-05T05:59:12.865Z,12.70
2022-11-05T06:01:41.547Z,12.80
2022-11-05T06:04:10.711Z,12.90
2022-11-05T06:06:39.221Z,13.00
2022-11-05T06:09:07.790Z,13.10
2022-11-05T06:11:36.428Z,13.20
2022-11-05T06:14:06.558Z,13.30
2022-11-05T06:16:36.045Z,13.40
2022-11-05T06:19:04.663Z,13.50
2022-11-05T06:21:33.364Z,13.70
2022-11-05T06:24:02.819Z,13.80
2022-11-05T06:26:31.520Z,13.90
2022-11-05T06:29:00.164Z,14.00
2022-11-05T06:31:30.077Z,14.20
2022-11-05T06:33:58.555Z,14.30
2022-11-05T06:36:26.989Z,14.50
2022-11-05T06:38:55.470Z,14.60
2022-11-05T06:41:24.061Z,14.70
2022-11-05T06:43:52.514Z,14.80
2022-11-05T06:46:21.228Z,14.90
2022-11-05T06:48:51.254Z,15.00
2022-11-05T06:51:20.020Z,15.20
2022-11-05T06:53:48.637Z,15.30
2022-11-05T06:56:17.271Z,15.40
2022-11-05T06:58:45.991Z,15.50
2022-11-05T07:01:14.868Z,15.70
2022-11-05T07:03:45.232Z,15.80
2022-11-05T07:06:15.542Z,16.00
2022-11-05T07:08:44.228Z,16.10
2022-11-05T07:11:12.795Z,16.30
2022-11-05T07:13:41.601Z,16.30
2022-11-05T07:16:10.206Z,16.50
2022-11-05T07:18:38.828Z,16.70
2022-11-05T07:21:07.664Z,16.90
2022-11-05T07:23:37.759Z,17.00
2022-11-05T07:26:06.558Z,17.10
2022-11-05T07:28:35.152Z,17.20
2022-11-05T07:31:03.833Z,17.40
2022-11-05T07:33:36.517Z,17.50
2022-11-05T07:36:05.703Z,17.70
2022-11-05T07:38:34.307Z,17.80
2022-11-05T07:41:04.419Z,17.90
2022-11-05T07:43:33.153Z,18.00
2022-11-05T07:46:01.838Z,18.20
2022-11-05T07:48:30.506Z,18.30
2022-11-05T07:51:17.984Z,18.50
2022-11-05T07:53:48.348Z,18.70
2022-11-05T07:56:18.568Z,18.80
2022-11-05T07:58:47.287Z,18.90
2022-11-05T08:01:16.225Z,19.00
2022-11-05T08:03:45.284Z,19.00
2022-11-05T08:06:13.997Z,19.20
2022-11-05T08:08:42.953Z,19.40
2022-11-05T08:11:12.383Z,19.50
2022-11-05T08:13:42.957Z,19.60
2022-11-05T08:16:11.929Z,19.80
2022-11-05T08:18:40.710Z,19.90
2022-11-05T08:21:09.766Z,20.00
2022-11-05T08:23:39.214Z,20.10
2022-11-05T08:26:07.859Z,20.30
2022-11-05T08:28:36.473Z,20.40
2022-11-05T08:31:07.044Z,20.90
2022-11-05T08:33:35.805Z,21.40
2022-11-05T08:36:05.000Z,22.70
2022-11-05T08:38:33.879Z,24.20
2022-11-05T08:41:02.664Z,25.80
2022-11-05T08:43:31.221Z,27.10
2022-11-05T08:46:01.317Z,28.20
2022-11-05T08:48:31.441Z,29.00
2022-11-05T08:51:01.285Z,29.70
2022-11-05T08:53:29.976Z,30.30
2022-11-05T08:56:01.717Z,30.70
2022-11-05T08:58:31.365Z,31.00
2022-11-05T09:01:04.698Z,31.40
2022-11-05T09:03:35.671Z,31.70
2022-11-05T09:06:04.483Z,32.00
2022-11-05T09:08:33.183Z,32.40
2022-11-05T09:11:01.756Z,32.60
2022-11-05T09:13:30.465Z,33.10
2022-11-05T09:16:00.035Z,33.30
2022-11-05T09:18:28.703Z,33.50
2022-11-05T09:20:59.056Z,33.70
2022-11-05T09:23:27.717Z,33.90
2022-11-05T09:25:56.387Z,34.20
2022-11-05T09:28:25.856Z,34.40
2022-11-05T09:30:54.481Z,34.50
2022-11-05T09:33:24.165Z,34.60
2022-11-05T09:35:53.908Z,34.70
2022-11-05T09:38:24.076Z,34.70
2022-11-05T09:40:57.132Z,34.60
2022-11-05T09:43:31.716Z,34.60
2022-11-05T09:46:03.919Z,34.80
2022-11-05T09:48:33.647Z,34.90
2022-11-05T09:51:02.290Z,35.10
2022-11-05T09:53:32.464Z,35.30
2022-11-05T09:56:02.069Z,35.50
2022-11-05T09:58:36.667Z,35.90
2022-11-05T10:01:06.415Z,36.10
2022-11-05T10:03:35.884Z,36.00
2022-11-05T10:06:09.287Z,36.10
2022-11-05T10:08:43.167Z,36.20
2022-11-05T10:11:15.754Z,36.20
2022-11-05T10:13:46.658Z,36.20
2022-11-05T10:16:21.254Z,36.20
2022-11-05T10:18:52.469Z,36.30
2022-11-05T10:21:44.307Z,36.30
2022-11-05T10:24:18.933Z,36.30
2022-11-05T10:27:06.763Z,36.30
2022-11-05T10:29:36.381Z,36.20
2022-11-05T10:32:07.530Z,36.20
2022-11-05T10:34:37.562Z,36.30
2022-11-05T10:37:06.578Z,36.40
2022-11-05T10:39:36.748Z,36.20
2022-11-05T10:42:23.079Z,36.00
2022-11-05T10:44:54.733Z,35.90
2022-11-05T10:47:32.761Z,35.90
2022-11-05T10:50:02.428Z,35.90
2022-11-05T10:52:34.162Z,35.80
2022-11-05T10:55:06.442Z,35.20
2022-11-05T10:57:36.174Z,34.30
2022-11-05T11:00:25.369Z,33.30
2022-11-05T11:02:55.293Z,32.40
2022-11-05T11:05:25.239Z,31.60
2022-11-05T11:07:55.346Z,31.00
2022-11-05T11:10:25.887Z,30.50
2022-11-05T11:12:54.934Z,30.10
2022-11-05T11:15:25.526Z,29.80
2022-11-05T11:17:54.314Z,29.40
2022-11-05T11:20:25.154Z,29.20
2022-11-05T11:23:01.209Z,28.90
2022-11-05T11:25:32.739Z,28.70
2022-11-05T11:28:05.527Z,28.50
2022-11-05T11:30:35.359Z,28.30
2022-11-05T11:33:08.008Z,28.20
2022-11-05T11:35:38.048Z,28.00
2022-11-05T11:38:07.291Z,27.90
2022-11-05T11:40:38.753Z,27.80
2022-11-05T11:43:14.569Z,27.80
2022-11-05T11:45:47.204Z,27.70
2022-11-05T11:48:18.307Z,27.70
2022-11-05T11:50:48.063Z,27.70
2022-11-05T11:53:26.356Z,27.60
2022-11-05T11:56:00.103Z,27.60
2022-11-05T11:58:39.212Z,27.50
2022-11-05T12:01:15.307Z,27.50
2022-11-05T12:03:46.330Z,27.50
2022-11-05T12:06:19.876Z,27.40
2022-11-05T12:09:13.467Z,27.40
2022-11-05T12:11:45.425Z,27.30
2022-11-05T12:14:22.014Z,27.30
2022-11-05T12:17:00.799Z,27.20
2022-11-05T12:19:39.168Z,27.20
2022-11-05T12:22:16.694Z,27.10
2022-11-05T12:24:56.151Z,27.10
2022-11-05T12:27:34.784Z,27.10
2022-11-05T12:30:05.587Z,27.00
2022-11-05T12:32:57.065Z,27.00
2022-11-05T12:35:32.180Z,27.00
2022-11-05T12:38:05.842Z,26.80
2022-11-05T12:40:59.897Z,26.90
2022-11-05T12:43:38.239Z,26.90
2022-11-05T12:46:25.582Z,26.80
2022-11-05T12:49:03.807Z,26.80
2022-11-05T12:51:39.955Z,26.80
2022-11-05T12:54:14.237Z,26.70
2022-11-05T12:56:44.827Z,26.70
2022-11-05T12:59:19.790Z,26.70
2022-11-05T13:01:50.301Z,26.70
2022-11-05T13:04:25.302Z,26.60
2022-11-05T13:07:15.359Z,26.60
2022-11-05T13:09:46.633Z,26.60
2022-11-05T13:12:16.895Z,26.60
2022-11-05T13:14:48.874Z,26.50
2022-11-05T13:17:19.057Z,26.50
2022-11-05T13:19:50.392Z,26.40
2022-11-05T13:22:23.407Z,26.40
2022-11-05T13:24:53.070Z,26.40
2022-11-05T13:27:41.474Z,26.40
2022-11-05T13:30:14.924Z,26.30
2022-11-05T13:32:45.019Z,26.30
2022-11-05T13:35:17.402Z,26.20
2022-11-05T13:38:02.796Z,26.10
2022-11-05T13:40:57.223Z,26.10
2022-11-05T13:43:31.975Z,26.00
2022-11-05T13:46:12.036Z,26.00
2022-11-05T13:48:59.470Z,25.90
2022-11-05T13:51:47.378Z,25.90
2022-11-05T13:54:36.950Z,25.70
2022-11-05T13:57:12.767Z,25.50
2022-11-05T13:59:48.451Z,25.50
2022-11-05T14:02:22.464Z,25.40
2022-11-05T14:04:58.018Z,25.30
2022-11-05T14:07:31.318Z,25.20
2022-11-05T14:10:01.115Z,25.10
2022-11-05T14:12:31.175Z,25.00
2022-11-05T14:15:02.782Z,24.90
2022-11-05T14:17:55.109Z,24.80
2022-11-05T14:20:41.924Z,24.70
2022-11-05T14:23:31.224Z,24.50
2022-11-05T14:26:13.717Z,24.30
2022-11-05T14:28:43.935Z,24.20
2022-11-05T14:31:47.441Z,24.00
2022-11-05T14:34:24.075Z,23.40
2022-11-05T14:37:18.672Z,23.70
2022-11-05T14:39:48.161Z,23.50
2022-11-05T14:42:18.282Z,23.20
2022-11-05T14:45:01.789Z,23.10
2022-11-05T14:47:31.698Z,22.90
2022-11-05T14:50:03.961Z,22.70
2022-11-05T14:52:33.720Z,22.50
2022-11-05T14:55:02.392Z,22.30
2022-11-05T14:57:52.114Z,22.20
2022-11-05T15:00:46.026Z,22.00
2022-11-05T15:03:47.228Z,21.80
2022-11-05T15:06:28.133Z,21.70
2022-11-05T15:09:13.040Z,21.50
2022-11-05T15:11:44.460Z,21.30
2022-11-05T15:14:20.084Z,21.20
2022-11-05T15:16:50.863Z,21.10
2022-11-05T15:19:22.089Z,20.80
2022-11-05T15:21:52.884Z,20.70
2022-11-05T15:24:22.151Z,20.50
2022-11-05T15:26:54.911Z,20.40
2022-11-05T15:29:25.833Z,20.30
2022-11-05T15:31:54.696Z,20.40
2022-11-05T15:34:24.728Z,20.30
2022-11-05T15:36:56.914Z,20.30
2022-11-05T15:39:29.751Z,20.30
2022-11-05T15:41:59.147Z,20.20
2022-11-05T15:44:29.334Z,20.10
2022-11-05T15:47:14.435Z,20.10
2022-11-05T15:49:43.937Z,20.00
2022-11-05T15:52:16.731Z,19.90
2022-11-05T15:54:45.588Z,20.00
2022-11-05T15:57:31.794Z,19.80
2022-11-05T16:00:00.395Z,19.80
2022-11-05T16:02:32.171Z,19.80
2022-11-05T16:05:01.267Z,19.70
2022-11-05T16:07:31.643Z,19.70
2022-11-05T16:10:01.494Z,19.60
2022-11-05T16:12:37.128Z,19.60
2022-11-05T16:15:19.480Z,19.50
2022-11-05T16:17:50.813Z,19.40
2022-11-05T16:20:20.984Z,19.40
2022-11-05T16:22:52.147Z,19.30
2022-11-05T16:25:38.582Z,19.30
2022-11-05T16:28:08.636Z,19.10
2022-11-05T16:30:57.223Z,19.00
2022-11-05T16:33:26.404Z,18.90
2022-11-05T16:35:55.156Z,18.80
2022-11-05T16:38:25.478Z,18.70
2022-11-05T16:40:54.146Z,18.70
2022-11-05T16:43:24.217Z,18.60
2022-11-05T16:45:54.904Z,18.50
2022-11-05T16:48:23.626Z,18.50
2022-11-05T16:50:52.412Z,18.40
2022-11-05T16:53:21.153Z,18.30
2022-11-05T16:55:51.827Z,18.30
2022-11-05T16:58:21.891Z,18.20
2022-11-05T17:00:51.258Z,18.10
2022-11-05T17:03:20.011Z,18.00
2022-11-05T17:05:48.958Z,18.00
2022-11-05T17:08:17.597Z,17.90
2022-11-05T17:10:46.256Z,17.80
2022-11-05T17:13:17.159Z,17.70
2022-11-05T17:15:46.449Z,17.70
2022-11-05T17:18:18.487Z,17.70
2022-11-05T17:20:48.574Z,17.60
2022-11-05T17:23:18.458Z,17.50
2022-11-05T17:25:47.970Z,17.50
2022-11-05T17:28:18.279Z,17.40
2022-11-05T17:30:52.372Z,17.40
2022-11-05T17:33:21.707Z,17.30
2022-11-05T17:35:50.893Z,17.30
2022-11-05T17:38:19.867Z,17.20
2022-11-05T17:40:48.567Z,17.20
2022-11-05T17:43:18.873Z,17.10
2022-11-05T17:45:48.130Z,17.10
2022-11-05T17:48:16.902Z,17.00
2022-11-05T17:50:46.146Z,16.90
2022-11-05T17:53:15.483Z,16.90
2022-11-05T17:56:02.667Z,16.80
2022-11-05T17:58:32.617Z,16.80
2022-11-05T18:01:01.339Z,16.80
2022-11-05T18:03:29.901Z,16.70
2022-11-05T18:06:02.080Z,16.70
2022-11-05T18:08:30.758Z,16.70
2022-11-05T18:10:59.287Z,16.60
2022-11-05T18:13:27.730Z,16.60
2022-11-05T18:15:57.806Z,16.60
2022-11-05T18:18:26.407Z,16.50
2022-11-05T18:20:57.979Z,16.50
2022-11-05T18:23:26.466Z,16.50
2022-11-05T18:25:57.101Z,16.50
2022-11-05T18:28:25.651Z,16.50
2022-11-05T18:30:54.205Z,16.50
2022-11-05T18:33:24.300Z,16.50
2022-11-05T18:35:53.134Z,16.40
2022-11-05T18:38:21.878Z,16.40
2022-11-05T18:40:50.546Z,16.30
2022-11-05T18:43:37.693Z,16.30
2022-11-05T18:46:06.412Z,16.20
2022-11-05T18:48:36.851Z,16.20
2022-11-05T18:51:08.570Z,16.10
2022-11-05T18:53:37.222Z,16.00
2022-11-05T18:56:08.246Z,16.00
2022-11-05T18:58:37.473Z,15.90
2022-11-05T19:01:25.146Z,15.90
2022-11-05T19:03:55.312Z,15.80
2022-11-05T19:06:25.303Z,15.70
2022-11-05T19:08:54.278Z,15.70
2022-11-05T19:11:24.066Z,15.70
2022-11-05T19:13:52.859Z,15.70
2022-11-05T19:16:22.458Z,15.70
2022-11-05T19:18:50.897Z,15.70
2022-11-05T19:21:22.861Z,15.70
2022-11-05T19:23:51.909Z,15.70
2022-11-05T19:26:27.207Z,15.70
2022-11-05T19:28:58.070Z,15.70
2022-11-05T19:31:26.523Z,15.60
2022-11-05T19:33:55.474Z,15.60
2022-11-05T19:36:25.894Z,15.60
2022-11-05T19:38:58.716Z,15.60
2022-11-05T19:41:27.431Z,15.60
2022-11-05T19:43:58.162Z,15.60
2022-11-05T19:46:26.926Z,15.60
2022-11-05T19:48:55.514Z,15.70
2022-11-05T19:51:26.452Z,15.60
2022-11-05T19:53:55.497Z,15.60
2022-11-05T19:56:25.465Z,15.60
2022-11-05T19:58:54.295Z,15.60
2022-11-05T20:01:24.040Z,15.50
2022-11-05T20:03:52.766Z,15.50
2022-11-05T20:06:22.078Z,15.50
2022-11-05T20:09:20.084Z,15.40
2022-11-05T20:11:41.633Z,15.40
2022-11-05T20:14:11.262Z,15.40
2022-11-05T20:16:40.556Z,15.30
2022-11-05T20:19:10.488Z,15.30
2022-11-05T20:21:39.149Z,15.30
2022-11-05T20:24:09.630Z,15.30
2022-11-05T20:26:38.591Z,15.30
2022-11-05T20:29:07.461Z,15.30
2022-11-05T20:31:35.941Z,15.30
2022-11-05T20:34:04.529Z,15.30
2022-11-05T20:36:33.149Z,15.10
2022-11-05T20:39:02.955Z,15.30
2022-11-05T20:41:33.364Z,15.30
2022-11-05T20:44:01.887Z,15.30
2022-11-05T20:46:30.436Z,15.20
2022-11-05T20:48:59.027Z,15.20
2022-11-05T20:51:31.038Z,15.20
2022-11-05T20:54:00.843Z,15.10
2022-11-05T20:56:30.820Z,15.10
2022-11-05T20:59:01.048Z,15.10
2022-11-05T21:01:30.327Z,15.10
2022-11-05T21:03:59.851Z,15.10
2022-11-05T21:06:28.399Z,15.10
2022-11-05T21:08:56.950Z,15.10
2022-11-05T21:11:25.484Z,15.10
2022-11-05T21:13:54.140Z,15.00
2022-11-05T21:16:24.127Z,15.00
2022-11-05T21:18:52.763Z,15.00
2022-11-05T21:21:21.815Z,14.90
2022-11-05T21:23:50.300Z,14.90
2022-11-05T21:26:19.108Z,14.90
2022-11-05T21:28:47.609Z,14.80
2022-11-05T21:31:16.108Z,14.80
2022-11-05T21:33:49.763Z,14.80
2022-11-05T21:36:21.129Z,14.70
2022-11-05T21:38:49.613Z,14.70
2022-11-05T21:41:18.227Z,14.80
2022-11-05T21:43:46.945Z,14.70
2022-11-05T21:46:15.453Z,14.70
2022-11-05T21:48:45.398Z,14.70
2022-11-05T21:51:49.811Z,14.70
2022-11-05T21:54:35.377Z,14.70
2022-11-05T21:57:21.428Z,14.70
2022-11-05T21:59:51.860Z,14.70
2022-11-05T22:02:21.570Z,14.60
2022-11-05T22:05:10.509Z,14.60
2022-11-05T22:07:39.671Z,14.50
2022-11-05T22:10:15.579Z,14.60
2022-11-05T22:12:45.020Z,14.40
2022-11-05T22:15:13.675Z,14.40
2022-11-05T22:17:46.559Z,14.30
2022-11-05T22:20:18.053Z,14.30
2022-11-05T22:23:10.905Z,14.20
2022-11-05T22:25:39.823Z,14.20
2022-11-05T22:28:26.914Z,14.20
2022-11-05T22:30:55.343Z,14.20
2022-11-05T22:33:23.866Z,14.20
2022-11-05T22:35:53.845Z,14.20
2022-11-05T22:38:22.266Z,14.20
2022-11-05T22:40:50.798Z,14.20
2022-11-05T22:43:19.336Z,14.20
2022-11-05T22:45:47.690Z,14.20
2022-11-05T22:48:16.648Z,14.20
2022-11-05T22:50:45.194Z,14.30
2022-11-05T22:53:16.917Z,14.30
2022-11-05T22:55:45.520Z,14.30
2022-11-05T22:58:14.523Z,14.20
2022-11-05T23:00:43.212Z,14.30
2022-11-05T23:03:11.779Z,14.20
2022-11-05T23:05:40.325Z,14.20
2022-11-05T23:08:34.802Z,14.20
2022-11-05T23:11:24.095Z,14.30
2022-11-05T23:13:52.779Z,14.10
2022-11-05T23:16:38.762Z,14.10
2022-11-05T23:19:24.751Z,14.00
2022-11-05T23:22:10.735Z,14.10
2022-11-05T23:24:39.339Z,14.00
2022-11-05T23:27:09.364Z,14.00
2022-11-05T23:29:37.932Z,13.90
2022-11-05T23:32:24.022Z,13.90
2022-11-05T23:34:52.545Z,13.90
2022-11-05T23:37:38.703Z,14.00
2022-11-05T23:40:08.558Z,14.00
2022-11-05T23:42:55.667Z,14.00
2022-11-05T23:45:41.424Z,14.00
2022-11-05T23:48:18.978Z,14.00
2022-11-05T23:50:49.647Z,14.00
2022-11-05T23:53:18.379Z,14.00
2022-11-05T23:55:46.838Z,14.00
2022-11-05T23:58:17.299Z,14.00
